Time;durP1;ratioP1;P1;durP2;ratioP2;P2;SDS_P1;SDS_P2;PMS_P1;PMS_P2;Temp;Humidity;BMP_temperature;BMP_pressure;BME280_temperature;BME280_humidity;BME280_pressure;Samples;Min_cycle;Max_cycle;Signal;HPM_P1;HPM_P2
2020/12/18 00:00:39;;;;;;;6.30;4.97;;;4.90;99.90;;;;;;483552;246;27411;-74
2020/12/18 00:02:40;;;;;;;7.45;4.95;;;4.80;99.90;;;;;;483607;246;27442;-73
2020/12/18 00:04:41;;;;;;;8.90;5.75;;;4.80;99.90;;;;;;483475;246;27460;-73
2020/12/18 00:06:43;;;;;;;8.18;5.30;;;4.80;99.90;;;;;;483522;246;27451;-73
2020/12/18 00:08:44;;;;;;;6.15;5.12;;;4.80;99.90;;;;;;483475;246;27421;-73
2020/12/18 00:10:45;;;;;;;6.87;5.10;;;4.80;99.90;;;;;;483449;246;27416;-73
2020/12/18 00:12:46;;;;;;;7.00;5.00;;;4.80;99.90;;;;;;483498;246;27942;-73
2020/12/18 00:14:48;;;;;;;8.70;5.68;;;4.80;99.90;;;;;;483561;246;27940;-74
2020/12/18 00:16:49;;;;;;;6.97;5.32;;;4.90;99.90;;;;;;483527;246;27976;-73
2020/12/18 00:18:50;;;;;;;9.20;5.10;;;4.90;99.90;;;;;;483671;244;27382;-73
2020/12/18 00:20:51;;;;;;;6.70;4.53;;;4.80;99.90;;;;;;483587;246;27517;-74
2020/12/18 00:22:53;;;;;;;5.07;4.00;;;4.70;99.90;;;;;;483621;246;27369;-74
2020/12/18 00:24:54;;;;;;;4.47;3.85;;;4.70;99.90;;;;;;483467;246;27441;-74
2020/12/18 00:26:55;;;;;;;8.38;4.60;;;4.60;99.90;;;;;;483529;246;27514;-74
2020/12/18 00:28:56;;;;;;;7.22;5.25;;;4.60;99.90;;;;;;483480;246;27406;-72
2020/12/18 00:30:58;;;;;;;5.47;4.97;;;4.50;99.90;;;;;;483136;244;27429;-73
2020/12/18 00:32:59;;;;;;;8.25;5.72;;;4.50;99.90;;;;;;483411;246;27445;-74
2020/12/18 00:35:00;;;;;;;5.68;4.40;;;4.50;99.90;;;;;;483502;245;27501;-76
2020/12/18 00:37:01;;;;;;;7.53;5.15;;;4.40;99.90;;;;;;483498;246;27908;-76
2020/12/18 00:39:03;;;;;;;5.55;4.37;;;4.40;99.90;;;;;;483499;246;28085;-76
2020/12/18 00:41:04;;;;;;;7.20;4.95;;;4.40;99.90;;;;;;483450;246;28981;-75
2020/12/18 00:43:05;;;;;;;5.20;4.55;;;4.40;99.90;;;;;;483514;246;28770;-76
2020/12/18 00:45:06;;;;;;;7.20;5.30;;;4.50;99.90;;;;;;483547;246;27369;-76
2020/12/18 00:47:08;;;;;;;6.43;4.80;;;4.50;99.90;;;;;;483512;246;27507;-76
2020/12/18 00:49:09;;;;;;;8.00;5.53;;;4.60;99.90;;;;;;483488;246;27413;-76
2020/12/18 00:51:10;;;;;;;6.55;5.28;;;4.60;99.90;;;;;;483414;246;27405;-73
2020/12/18 00:53:11;;;;;;;6.30;4.55;;;4.60;99.90;;;;;;483535;246;27920;-73
2020/12/18 00:55:13;;;;;;;6.30;4.50;;;4.60;99.90;;;;;;483518;246;27388;-74
2020/12/18 00:57:14;;;;;;;9.68;4.45;;;4.60;99.90;;;;;;483589;245;27482;-73
2020/12/18 00:59:15;;;;;;;5.10;4.60;;;4.60;99.90;;;;;;483642;246;27410;-73
2020/12/18 01:01:16;;;;;;;5.07;4.57;;;4.60;99.90;;;;;;483647;246;27378;-73
2020/12/18 01:03:18;;;;;;;5.85;4.28;;;4.60;99.90;;;;;;483640;246;27935;-73
2020/12/18 01:05:19;;;;;;;4.93;4.45;;;4.50;99.90;;;;;;483546;246;27948;-73
2020/12/18 01:07:20;;;;;;;5.35;4.35;;;4.50;99.90;;;;;;483558;246;27887;-73
2020/12/18 01:09:21;;;;;;;7.40;5.45;;;4.40;99.90;;;;;;483466;246;28361;-74
2020/12/18 01:11:23;;;;;;;8.48;5.28;;;4.30;99.90;;;;;;483570;246;27457;-73
2020/12/18 01:13:24;;;;;;;6.80;4.60;;;4.30;99.90;;;;;;483606;246;27513;-73
2020/12/18 01:15:25;;;;;;;7.82;5.70;;;4.30;99.90;;;;;;483627;246;27421;-73
2020/12/18 01:17:26;;;;;;;12.68;5.28;;;4.30;99.90;;;;;;483634;246;27413;-73
2020/12/18 01:19:28;;;;;;;6.62;4.90;;;4.30;99.90;;;;;;483651;246;27399;-74
2020/12/18 01:21:29;;;;;;;6.12;5.25;;;4.40;99.90;;;;;;483613;246;27369;-73
2020/12/18 01:23:30;;;;;;;8.63;5.43;;;4.40;99.90;;;;;;483689;246;27402;-73
2020/12/18 01:25:31;;;;;;;8.07;5.72;;;4.40;99.90;;;;;;483718;246;27378;-73
2020/12/18 01:27:33;;;;;;;8.32;6.07;;;4.40;99.90;;;;;;483679;245;27421;-73
2020/12/18 01:29:34;;;;;;;6.97;5.03;;;4.50;99.90;;;;;;483617;246;28757;-73
2020/12/18 01:31:35;;;;;;;11.68;4.75;;;4.40;99.90;;;;;;483470;246;28197;-73
2020/12/18 01:33:36;;;;;;;9.00;4.10;;;4.30;99.90;;;;;;483504;244;27951;-74
2020/12/18 01:35:38;;;;;;;7.80;4.30;;;4.30;99.90;;;;;;483468;246;27398;-73
2020/12/18 01:37:39;;;;;;;7.00;5.30;;;4.10;99.90;;;;;;483563;246;27398;-76
2020/12/18 01:39:40;;;;;;;4.90;4.47;;;4.10;99.90;;;;;;483621;246;27413;-76
2020/12/18 01:41:41;;;;;;;5.32;4.20;;;4.10;99.90;;;;;;483614;246;27363;-76
2020/12/18 01:43:43;;;;;;;8.25;4.70;;;4.10;99.90;;;;;;483647;246;27449;-76
2020/12/18 01:45:44;;;;;;;5.50;4.20;;;4.10;99.90;;;;;;483642;246;27358;-76
2020/12/18 01:47:45;;;;;;;16.85;4.47;;;4.10;99.90;;;;;;483625;246;27426;-76
2020/12/18 01:49:46;;;;;;;8.20;4.20;;;4.00;99.90;;;;;;483577;246;27413;-77
2020/12/18 01:51:48;;;;;;;6.20;4.87;;;3.90;99.90;;;;;;483506;246;27411;-76
2020/12/18 01:53:49;;;;;;;4.65;4.20;;;3.90;99.90;;;;;;483551;246;27421;-73
2020/12/18 01:55:50;;;;;;;5.97;4.40;;;4.00;99.90;;;;;;483114;244;28319;-73
2020/12/18 01:57:51;;;;;;;5.28;4.70;;;3.90;99.90;;;;;;483305;245;27924;-73
2020/12/18 01:59:53;;;;;;;8.13;4.62;;;4.00;99.90;;;;;;483424;246;27915;-73
2020/12/18 02:01:54;;;;;;;12.20;6.03;;;4.00;99.90;;;;;;483350;242;27901;-74
2020/12/18 02:03:55;;;;;;;6.93;5.30;;;4.20;99.90;;;;;;483619;246;27826;-76
2020/12/18 02:05:56;;;;;;;6.75;4.97;;;4.20;99.90;;;;;;483595;246;27406;-77
2020/12/18 02:07:58;;;;;;;8.02;4.80;;;4.30;99.90;;;;;;483476;246;27426;-76
2020/12/18 02:09:59;;;;;;;6.10;5.00;;;4.30;99.90;;;;;;483473;246;27414;-76
2020/12/18 02:12:00;;;;;;;6.90;4.68;;;4.30;99.90;;;;;;483451;246;27506;-76
2020/12/18 02:14:01;;;;;;;7.05;4.75;;;4.30;99.90;;;;;;483476;242;27770;-76
2020/12/18 02:16:03;;;;;;;7.97;4.30;;;4.30;99.90;;;;;;483487;246;27453;-75
2020/12/18 02:18:04;;;;;;;6.85;5.35;;;4.30;99.90;;;;;;483473;246;27519;-74
2020/12/18 02:20:05;;;;;;;9.05;5.07;;;4.20;99.90;;;;;;483448;246;27440;-73
2020/12/18 02:22:06;;;;;;;5.95;4.10;;;4.20;99.90;;;;;;483485;246;28051;-75
2020/12/18 02:24:08;;;;;;;5.80;4.85;;;4.20;99.90;;;;;;483484;244;28044;-75
2020/12/18 02:26:09;;;;;;;5.25;4.25;;;4.20;99.90;;;;;;483489;245;27927;-73
2020/12/18 02:28:10;;;;;;;5.30;4.50;;;4.20;99.90;;;;;;483494;246;27888;-73
2020/12/18 02:30:11;;;;;;;6.50;4.80;;;4.20;99.90;;;;;;483383;245;27445;-76
2020/12/18 02:32:13;;;;;;;7.00;4.30;;;4.20;99.90;;;;;;483512;246;27496;-75
2020/12/18 02:34:14;;;;;;;5.28;3.97;;;4.20;99.90;;;;;;483592;244;27374;-76
2020/12/18 02:36:15;;;;;;;5.30;4.30;;;4.20;99.90;;;;;;483566;246;27498;-76
2020/12/18 02:38:16;;;;;;;7.30;4.85;;;4.20;99.90;;;;;;483492;246;27445;-75
2020/12/18 02:40:18;;;;;;;10.25;4.40;;;4.20;99.90;;;;;;483507;246;27394;-76
2020/12/18 02:42:19;;;;;;;5.50;4.50;;;4.20;99.90;;;;;;483574;246;27502;-76
2020/12/18 02:44:20;;;;;;;5.43;4.40;;;4.30;99.90;;;;;;483585;246;27422;-75
2020/12/18 02:46:21;;;;;;;5.75;5.10;;;4.20;99.90;;;;;;483645;246;27411;-75
2020/12/18 02:48:23;;;;;;;5.95;4.75;;;4.20;99.90;;;;;;483613;246;27415;-76
2020/12/18 02:50:24;;;;;;;5.93;4.30;;;4.20;99.90;;;;;;483607;246;27887;-76
2020/12/18 02:52:25;;;;;;;9.05;5.68;;;4.20;99.90;;;;;;483591;246;28019;-76
2020/12/18 02:54:26;;;;;;;12.27;5.45;;;4.20;99.90;;;;;;483669;246;27827;-76
2020/12/18 02:56:28;;;;;;;8.50;5.82;;;4.20;99.90;;;;;;483648;246;27574;-75
2020/12/18 02:58:29;;;;;;;9.52;5.12;;;4.30;99.90;;;;;;483671;246;27583;-76
2020/12/18 03:00:30;;;;;;;7.10;5.20;;;4.30;99.90;;;;;;483599;246;27365;-76
2020/12/18 03:02:31;;;;;;;6.15;5.22;;;4.20;99.90;;;;;;483484;244;27409;-76
2020/12/18 03:04:33;;;;;;;7.90;5.30;;;4.30;99.90;;;;;;483555;246;27462;-75
2020/12/18 03:06:34;;;;;;;5.12;4.40;;;4.30;99.90;;;;;;483326;246;27769;-76
2020/12/18 03:08:35;;;;;;;7.35;4.85;;;4.30;99.90;;;;;;483313;246;27434;-77
2020/12/18 03:10:36;;;;;;;5.90;4.50;;;4.30;99.90;;;;;;483449;246;27444;-76
2020/12/18 03:12:38;;;;;;;4.82;4.32;;;4.30;99.90;;;;;;483561;246;27449;-76
2020/12/18 03:14:39;;;;;;;6.07;4.97;;;4.20;99.90;;;;;;483551;246;27921;-76
2020/12/18 03:16:41;;;;;;;7.37;5.45;;;4.20;99.90;;;;;;483602;246;27868;-76
2020/12/18 03:18:41;;;;;;;10.32;6.62;;;4.30;99.90;;;;;;483660;246;28239;-76
2020/12/18 03:20:43;;;;;;;8.27;5.70;;;4.30;99.90;;;;;;483537;246;27843;-76
2020/12/18 03:22:44;;;;;;;12.18;6.90;;;4.40;99.90;;;;;;483611;246;27418;-73
2020/12/18 03:24:45;;;;;;;10.63;5.85;;;4.50;99.90;;;;;;483587;246;27430;-73
2020/12/18 03:26:46;;;;;;;10.18;5.20;;;4.50;99.90;;;;;;483523;246;27482;-73
2020/12/18 03:28:48;;;;;;;6.37;4.95;;;4.50;99.90;;;;;;483599;246;27505;-73
2020/12/18 03:30:49;;;;;;;9.10;5.60;;;4.50;99.90;;;;;;483529;246;27418;-74
2020/12/18 03:32:50;;;;;;;10.88;5.40;;;4.50;99.90;;;;;;483466;246;27453;-73
2020/12/18 03:34:51;;;;;;;7.15;4.97;;;4.50;99.90;;;;;;483500;246;27429;-73
2020/12/18 03:36:53;;;;;;;7.68;4.90;;;4.60;99.90;;;;;;483506;246;27988;-74
2020/12/18 03:38:54;;;;;;;7.05;4.95;;;4.50;99.90;;;;;;483499;246;28023;-73
2020/12/18 03:40:55;;;;;;;7.72;4.47;;;4.40;99.90;;;;;;483442;246;28019;-74
2020/12/18 03:42:56;;;;;;;6.97;4.43;;;4.40;99.90;;;;;;483488;244;27841;-73
2020/12/18 03:44:58;;;;;;;8.27;4.25;;;4.50;99.90;;;;;;483520;246;27421;-74
2020/12/18 03:46:59;;;;;;;4.90;4.00;;;4.50;99.90;;;;;;483507;246;27488;-74
2020/12/18 03:49:00;;;;;;;5.68;3.87;;;4.30;99.90;;;;;;483463;246;27500;-73
2020/12/18 03:51:01;;;;;;;7.40;3.67;;;4.20;99.90;;;;;;483438;246;27417;-73
2020/12/18 03:53:03;;;;;;;3.95;3.30;;;4.10;99.90;;;;;;483505;246;27453;-73
2020/12/18 03:55:04;;;;;;;3.95;3.35;;;4.10;99.90;;;;;;483543;246;27527;-73
2020/12/18 03:57:05;;;;;;;6.03;4.10;;;4.00;99.90;;;;;;483584;246;27481;-74
2020/12/18 03:59:07;;;;;;;5.72;4.40;;;4.00;99.90;;;;;;483478;246;27504;-73
2020/12/18 04:01:08;;;;;;;10.65;5.12;;;4.00;99.90;;;;;;483473;246;27425;-74
2020/12/18 04:03:09;;;;;;;5.62;4.90;;;4.10;99.90;;;;;;483547;246;27951;-73
2020/12/18 04:05:10;;;;;;;5.43;4.53;;;4.10;99.90;;;;;;483567;246;27893;-73
2020/12/18 04:07:12;;;;;;;4.37;3.97;;;4.10;99.90;;;;;;483593;244;28896;-73
2020/12/18 04:09:13;;;;;;;6.20;4.07;;;4.10;99.90;;;;;;483577;244;27860;-73
2020/12/18 04:11:14;;;;;;;5.97;3.75;;;4.10;99.90;;;;;;483611;246;27418;-74
2020/12/18 04:13:15;;;;;;;4.78;3.70;;;4.10;99.90;;;;;;483716;242;27413;-73
2020/12/18 04:15:17;;;;;;;4.12;3.55;;;4.00;99.90;;;;;;483724;245;27441;-73
2020/12/18 04:17:18;;;;;;;3.08;2.87;;;4.00;99.90;;;;;;483689;246;27367;-73
2020/12/18 04:19:19;;;;;;;3.20;2.78;;;4.00;99.90;;;;;;483590;244;27402;-73
2020/12/18 04:21:20;;;;;;;4.55;4.15;;;3.90;99.90;;;;;;483328;246;27743;-73
2020/12/18 04:23:22;;;;;;;4.37;3.95;;;3.80;99.90;;;;;;483579;246;27396;-73
2020/12/18 04:25:23;;;;;;;10.35;5.85;;;3.80;99.90;;;;;;483508;246;27409;-73
2020/12/18 04:27:24;;;;;;;14.77;6.57;;;3.70;99.90;;;;;;483406;246;27409;-73
2020/12/18 04:29:25;;;;;;;14.07;6.93;;;3.70;99.90;;;;;;483468;244;27980;-73
2020/12/18 04:31:27;;;;;;;11.43;6.12;;;3.70;99.90;;;;;;483452;246;27966;-74
2020/12/18 04:33:28;;;;;;;14.00;6.78;;;3.70;99.90;;;;;;483539;246;27908;-73
2020/12/18 04:35:29;;;;;;;13.35;6.45;;;3.60;99.90;;;;;;483515;246;27642;-73
2020/12/18 04:37:30;;;;;;;12.95;6.70;;;3.60;99.90;;;;;;483488;246;27405;-74
2020/12/18 04:39:32;;;;;;;8.40;5.47;;;3.50;99.90;;;;;;483507;246;27430;-73
2020/12/18 04:41:33;;;;;;;8.57;4.70;;;3.50;99.90;;;;;;483311;246;27503;-73
2020/12/18 04:43:34;;;;;;;13.55;4.60;;;3.50;99.90;;;;;;483585;246;27393;-73
2020/12/18 04:45:35;;;;;;;7.43;4.80;;;3.40;99.90;;;;;;483616;246;27488;-73
2020/12/18 04:47:37;;;;;;;10.35;5.35;;;3.30;99.90;;;;;;483652;246;27480;-73
2020/12/18 04:49:38;;;;;;;6.40;4.60;;;3.40;99.90;;;;;;483625;246;27461;-73
2020/12/18 04:51:39;;;;;;;6.03;4.62;;;3.30;99.90;;;;;;483596;246;27953;-73
2020/12/18 04:53:40;;;;;;;6.40;4.20;;;3.40;99.90;;;;;;483538;246;28052;-74
2020/12/18 04:55:42;;;;;;;5.65;3.95;;;3.40;99.90;;;;;;483587;246;27877;-73
2020/12/18 04:57:43;;;;;;;3.50;3.17;;;3.50;99.90;;;;;;482923;246;28963;-73
2020/12/18 04:59:44;;;;;;;5.15;3.62;;;3.40;99.90;;;;;;482606;246;27813;-73
2020/12/18 05:01:45;;;;;;;4.25;3.50;;;3.50;99.90;;;;;;483314;245;27437;-73
2020/12/18 05:03:47;;;;;;;3.50;3.03;;;3.60;99.90;;;;;;483522;246;27433;-74
2020/12/18 05:05:48;;;;;;;3.78;3.17;;;3.70;99.90;;;;;;483454;246;27417;-74
2020/12/18 05:07:49;;;;;;;5.37;3.35;;;3.70;99.90;;;;;;483407;246;27426;-73
2020/12/18 05:09:50;;;;;;;4.10;3.70;;;3.60;99.90;;;;;;483416;246;27520;-71
2020/12/18 05:11:52;;;;;;;4.10;3.70;;;3.70;99.90;;;;;;483356;246;27381;-75
2020/12/18 05:13:53;;;;;;;7.28;4.90;;;3.70;99.90;;;;;;483429;246;27502;-76
2020/12/18 05:15:54;;;;;;;8.75;6.97;;;3.70;99.90;;;;;;483434;246;27437;-76
2020/12/18 05:17:55;;;;;;;6.32;4.97;;;3.70;99.90;;;;;;483471;246;27421;-76
2020/12/18 05:19:58;;;;;;;3.55;3.25;;;3.60;99.90;;;;;;483475;246;27972;-80
2020/12/18 05:21:58;;;;;;;3.62;3.33;;;3.60;99.90;;;;;;483280;246;27950;-75
2020/12/18 05:23:59;;;;;;;4.05;3.55;;;3.60;99.90;;;;;;483484;246;27889;-75
2020/12/18 05:26:00;;;;;;;6.53;3.75;;;3.60;99.90;;;;;;483510;243;28996;-76
2020/12/18 05:28:03;;;;;;;3.58;3.28;;;3.60;99.90;;;;;;483558;246;27512;-76
2020/12/18 05:30:03;;;;;;;5.78;3.30;;;3.60;99.90;;;;;;483539;246;27482;-76
2020/12/18 05:32:04;;;;;;;3.05;2.78;;;3.50;99.90;;;;;;483654;246;27393;-75
2020/12/18 05:34:05;;;;;;;4.40;3.30;;;3.50;99.90;;;;;;483611;246;27421;-76
2020/12/18 05:36:07;;;;;;;4.80;3.42;;;3.40;99.90;;;;;;483517;246;27412;-73
2020/12/18 05:38:08;;;;;;;3.60;3.30;;;3.40;99.90;;;;;;483517;246;27394;-73
2020/12/18 05:40:09;;;;;;;3.90;3.20;;;3.30;99.90;;;;;;483459;243;27480;-73
2020/12/18 05:42:10;;;;;;;3.20;2.90;;;3.20;99.90;;;;;;483565;246;27375;-73
2020/12/18 05:44:12;;;;;;;4.90;3.25;;;3.20;99.90;;;;;;483574;244;27454;-73
2020/12/18 05:46:13;;;;;;;3.17;2.95;;;3.10;99.90;;;;;;483614;246;27499;-73
2020/12/18 05:48:14;;;;;;;3.20;3.00;;;3.20;99.90;;;;;;483677;246;27853;-74
2020/12/18 05:50:15;;;;;;;3.55;3.00;;;3.20;99.90;;;;;;483544;246;27889;-74
2020/12/18 05:52:17;;;;;;;4.53;3.72;;;3.20;99.90;;;;;;483627;246;27925;-73
2020/12/18 05:54:18;;;;;;;3.00;2.70;;;3.10;99.90;;;;;;483688;246;28995;-74
2020/12/18 05:56:19;;;;;;;3.25;2.95;;;3.00;99.90;;;;;;483677;246;27445;-74
2020/12/18 05:58:20;;;;;;;3.47;3.17;;;2.90;99.90;;;;;;483678;246;27379;-73
2020/12/18 06:00:22;;;;;;;3.30;3.00;;;2.80;99.90;;;;;;483617;246;27414;-74
2020/12/18 06:02:23;;;;;;;4.93;3.15;;;2.80;99.90;;;;;;483544;246;27372;-74
2020/12/18 06:04:24;;;;;;;4.45;3.60;;;2.80;99.90;;;;;;483518;242;27422;-74
2020/12/18 06:06:25;;;;;;;4.78;3.25;;;2.80;99.90;;;;;;483551;246;27464;-74
2020/12/18 06:08:27;;;;;;;4.28;3.50;;;2.90;99.90;;;;;;483509;245;27377;-73
2020/12/18 06:10:28;;;;;;;3.53;2.83;;;2.80;99.90;;;;;;483488;246;27428;-74
2020/12/18 06:12:29;;;;;;;3.83;2.90;;;2.80;99.90;;;;;;483511;246;27401;-74
2020/12/18 06:14:30;;;;;;;3.47;2.90;;;2.80;99.90;;;;;;483461;246;27437;-73
2020/12/18 06:16:32;;;;;;;3.50;3.15;;;2.80;99.90;;;;;;483533;246;27414;-74
2020/12/18 06:18:33;;;;;;;4.28;3.10;;;2.80;99.90;;;;;;483546;246;27835;-74
2020/12/18 06:20:35;;;;;;;3.50;2.67;;;2.90;99.90;;;;;;483535;246;27900;-75
2020/12/18 06:22:35;;;;;;;4.00;3.00;;;2.80;99.90;;;;;;483561;246;28089;-74
2020/12/18 06:24:39;;;;;;;3.78;3.30;;;2.80;99.90;;;;;;483611;246;27433;-74
2020/12/18 06:26:38;;;;;;;4.22;2.58;;;2.70;99.90;;;;;;483510;246;27449;-73
2020/12/18 06:28:39;;;;;;;6.35;2.95;;;2.70;99.90;;;;;;483622;246;27386;-73
2020/12/18 06:30:40;;;;;;;2.95;2.67;;;2.60;99.90;;;;;;483594;246;27433;-72
2020/12/18 06:32:42;;;;;;;5.07;2.95;;;2.70;99.90;;;;;;483657;246;27425;-74
2020/12/18 06:34:43;;;;;;;2.47;2.28;;;2.70;99.90;;;;;;483636;246;27390;-74
2020/12/18 06:36:44;;;;;;;2.92;2.72;;;2.70;99.90;;;;;;483556;246;27516;-74
2020/12/18 06:38:45;;;;;;;3.78;3.28;;;2.60;99.90;;;;;;483461;245;27417;-74
2020/12/18 06:40:47;;;;;;;4.40;2.95;;;2.60;99.90;;;;;;483452;243;27497;-73
2020/12/18 06:42:48;;;;;;;5.20;3.05;;;2.60;99.90;;;;;;483515;246;27481;-73
2020/12/18 06:44:49;;;;;;;6.05;3.70;;;2.50;99.90;;;;;;483478;246;27508;-73
2020/12/18 06:46:50;;;;;;;3.87;3.45;;;2.50;99.90;;;;;;483464;246;27990;-73
2020/12/18 06:48:52;;;;;;;5.15;3.00;;;2.40;99.90;;;;;;483438;246;28575;-73
2020/12/18 06:50:53;;;;;;;3.97;3.10;;;2.40;99.90;;;;;;483433;246;27947;-74
2020/12/18 06:52:54;;;;;;;4.12;2.97;;;2.40;99.90;;;;;;483550;246;27969;-74
2020/12/18 06:54:55;;;;;;;3.40;2.80;;;2.30;99.90;;;;;;483611;244;27406;-73
2020/12/18 06:56:57;;;;;;;4.07;2.85;;;2.30;99.90;;;;;;483638;246;27422;-74
2020/12/18 06:58:58;;;;;;;3.50;3.20;;;2.30;99.90;;;;;;483664;246;27508;-74
2020/12/18 07:01:02;;;;;;;6.00;4.37;;;2.30;99.90;;;;;;483561;246;27378;-74
2020/12/18 07:03:00;;;;;;;4.18;3.20;;;2.30;99.90;;;;;;483523;245;27402;-74
2020/12/18 07:05:02;;;;;;;3.30;3.00;;;2.30;99.90;;;;;;483567;246;27486;-73
2020/12/18 07:07:03;;;;;;;2.87;2.67;;;2.30;99.90;;;;;;483617;246;27413;-73
2020/12/18 07:09:07;;;;;;;3.70;3.00;;;2.30;99.90;;;;;;483658;246;27502;-74
2020/12/18 07:11:05;;;;;;;5.20;3.40;;;2.30;99.90;;;;;;483516;245;27469;-73
2020/12/18 07:13:07;;;;;;;4.53;2.90;;;2.30;99.90;;;;;;483651;246;27434;-74
2020/12/18 07:15:08;;;;;;;3.15;2.90;;;2.30;99.90;;;;;;483555;246;28623;-73
2020/12/18 07:17:09;;;;;;;4.18;2.50;;;2.40;99.90;;;;;;483519;246;27920;-73
2020/12/18 07:19:12;;;;;;;4.05;3.00;;;2.40;99.90;;;;;;483503;246;28924;-74
2020/12/18 07:21:12;;;;;;;3.50;3.20;;;2.40;99.90;;;;;;483464;246;27393;-74
2020/12/18 07:23:13;;;;;;;3.75;3.03;;;2.30;99.90;;;;;;483074;246;27536;-74
2020/12/18 07:25:14;;;;;;;4.37;2.85;;;2.30;99.90;;;;;;483500;246;27493;-73
2020/12/18 07:27:15;;;;;;;3.35;3.05;;;2.30;99.90;;;;;;483477;246;27422;-74
2020/12/18 07:29:17;;;;;;;3.60;3.10;;;2.40;99.90;;;;;;483445;246;27417;-73
2020/12/18 07:31:18;;;;;;;3.92;3.22;;;2.40;99.90;;;;;;483371;246;27367;-74
2020/12/18 07:33:19;;;;;;;5.30;3.53;;;2.30;99.90;;;;;;483501;246;27513;-75
2020/12/18 07:35:20;;;;;;;3.80;3.50;;;2.30;99.90;;;;;;483492;246;27429;-73
2020/12/18 07:37:22;;;;;;;3.15;2.85;;;2.40;99.90;;;;;;483494;246;27448;-73
2020/12/18 07:39:23;;;;;;;2.62;2.37;;;2.40;99.90;;;;;;483471;246;27437;-73
2020/12/18 07:41:24;;;;;;;3.80;2.72;;;2.40;99.90;;;;;;483446;246;27488;-74
2020/12/18 07:43:25;;;;;;;2.80;2.50;;;2.40;99.90;;;;;;483483;246;27938;-73
2020/12/18 07:45:27;;;;;;;3.50;2.50;;;2.40;99.90;;;;;;483541;246;27900;-74
2020/12/18 07:47:28;;;;;;;3.25;2.95;;;2.40;99.90;;;;;;483592;246;27891;-73
2020/12/18 07:49:29;;;;;;;3.22;2.35;;;2.50;99.90;;;;;;483666;246;27845;-73
2020/12/18 07:51:30;;;;;;;3.90;2.70;;;2.50;99.90;;;;;;483572;246;27480;-74
2020/12/18 07:53:32;;;;;;;2.62;2.42;;;2.50;99.90;;;;;;483536;246;27390;-74
2020/12/18 07:55:33;;;;;;;2.75;2.55;;;2.60;99.90;;;;;;483501;246;27415;-74
2020/12/18 07:57:34;;;;;;;2.55;2.35;;;2.50;99.90;;;;;;483484;246;27409;-74
2020/12/18 07:59:35;;;;;;;3.05;2.75;;;2.50;99.90;;;;;;483482;246;27414;-74
2020/12/18 08:01:37;;;;;;;3.65;2.85;;;2.50;99.90;;;;;;483497;246;27785;-74
2020/12/18 08:03:38;;;;;;;2.72;2.53;;;2.40;99.90;;;;;;483547;246;27378;-73
2020/12/18 08:05:39;;;;;;;2.70;2.50;;;2.50;99.90;;;;;;483502;244;27406;-73
2020/12/18 08:07:40;;;;;;;2.70;2.50;;;2.50;99.90;;;;;;483487;246;27405;-74
2020/12/18 08:09:42;;;;;;;4.57;2.62;;;2.60;99.90;;;;;;483456;244;27516;-74
2020/12/18 08:11:45;;;;;;;3.92;3.33;;;2.50;99.90;;;;;;483305;246;28384;-73
2020/12/18 08:13:44;;;;;;;3.20;2.80;;;2.60;99.90;;;;;;482986;246;27971;-73
2020/12/18 08:15:45;;;;;;;3.85;3.08;;;2.60;99.90;;;;;;482952;246;28241;-74
2020/12/18 08:17:47;;;;;;;3.47;2.83;;;2.60;99.90;;;;;;482839;246;27967;-73
2020/12/18 08:19:48;;;;;;;3.85;3.25;;;2.70;99.90;;;;;;483427;243;27377;-73
2020/12/18 08:21:49;;;;;;;3.12;2.83;;;2.60;99.90;;;;;;483627;246;27415;-74
2020/12/18 08:23:50;;;;;;;2.67;2.47;;;2.60;99.90;;;;;;483633;246;27370;-73
2020/12/18 08:25:52;;;;;;;3.25;2.92;;;2.60;99.90;;;;;;483697;246;27441;-74
2020/12/18 08:27:53;;;;;;;3.15;2.85;;;2.70;99.90;;;;;;483711;246;27423;-73
2020/12/18 08:29:54;;;;;;;2.70;2.50;;;2.70;99.90;;;;;;483531;246;27437;-76
2020/12/18 08:31:55;;;;;;;4.10;2.45;;;2.80;99.90;;;;;;483454;246;27498;-77
2020/12/18 08:33:58;;;;;;;2.75;2.50;;;2.80;99.90;;;;;;483518;246;27433;-75
2020/12/18 08:35:58;;;;;;;3.80;2.80;;;2.80;99.90;;;;;;483466;246;27415;-74
2020/12/18 08:37:59;;;;;;;2.67;2.47;;;2.90;99.90;;;;;;483502;246;27437;-75
2020/12/18 08:40:00;;;;;;;2.40;2.20;;;2.90;99.90;;;;;;483471;246;27905;-74
2020/12/18 08:42:02;;;;;;;4.55;2.90;;;2.90;99.90;;;;;;483467;246;27959;-73
2020/12/18 08:44:03;;;;;;;3.17;2.67;;;2.90;99.90;;;;;;483525;244;27821;-73
2020/12/18 08:46:04;;;;;;;2.42;2.22;;;3.00;99.90;;;;;;483488;246;27877;-74
2020/12/18 08:48:05;;;;;;;2.70;2.50;;;3.10;99.90;;;;;;483493;246;27445;-75
2020/12/18 08:50:07;;;;;;;3.15;2.92;;;3.20;99.90;;;;;;483443;246;27418;-74
2020/12/18 08:52:09;;;;;;;2.47;2.28;;;3.20;99.90;;;;;;483474;246;27445;-74
2020/12/18 08:54:09;;;;;;;2.83;2.47;;;3.30;99.90;;;;;;483425;246;27428;-74
2020/12/18 08:56:10;;;;;;;3.50;2.40;;;3.30;99.90;;;;;;483484;246;27421;-73
2020/12/18 08:58:12;;;;;;;2.97;2.67;;;3.40;99.90;;;;;;483512;245;27423;-74
2020/12/18 09:00:13;;;;;;;2.45;2.10;;;3.50;99.90;;;;;;483471;246;27518;-74
2020/12/18 09:02:14;;;;;;;6.97;2.45;;;3.50;99.90;;;;;;483489;246;27413;-74
2020/12/18 09:04:15;;;;;;;3.37;2.80;;;3.50;99.90;;;;;;483433;246;27410;-74
2020/12/18 09:06:17;;;;;;;3.50;2.65;;;3.60;99.90;;;;;;483036;246;27508;-75
2020/12/18 09:08:21;;;;;;;3.35;3.00;;;3.60;99.90;;;;;;483619;246;27856;-74
2020/12/18 09:10:22;;;;;;;3.60;2.95;;;3.70;99.90;;;;;;483612;246;27382;-73
2020/12/18 09:12:23;;;;;;;3.92;3.30;;;3.70;99.90;;;;;;483558;245;27493;-73
2020/12/18 09:14:25;;;;;;;5.55;3.78;;;3.80;99.90;;;;;;483521;246;27503;-73
2020/12/18 09:16:26;;;;;;;5.25;3.75;;;3.80;99.90;;;;;;483503;246;27433;-75
2020/12/18 09:18:27;;;;;;;4.30;3.65;;;3.80;99.90;;;;;;483497;245;27493;-74
2020/12/18 09:20:28;;;;;;;6.85;5.15;;;3.80;99.90;;;;;;483467;246;27517;-74
2020/12/18 09:22:30;;;;;;;6.05;5.45;;;3.80;99.90;;;;;;483633;246;27448;-74
2020/12/18 09:24:31;;;;;;;8.55;6.30;;;3.90;99.90;;;;;;483671;246;27421;-74
2020/12/18 09:26:32;;;;;;;6.50;5.90;;;4.00;99.90;;;;;;483692;246;27425;-73
2020/12/18 09:28:33;;;;;;;6.75;5.00;;;4.10;99.90;;;;;;483688;246;27371;-74
2020/12/18 09:30:35;;;;;;;8.88;3.90;;;4.30;99.90;;;;;;483645;246;28004;-73
2020/12/18 09:32:36;;;;;;;4.85;3.75;;;4.40;99.90;;;;;;483670;246;27893;-74
2020/12/18 09:34:37;;;;;;;6.05;4.80;;;4.70;99.90;;;;;;483695;246;27985;-76
2020/12/18 09:36:38;;;;;;;4.70;4.22;;;4.70;99.90;;;;;;483025;245;28291;-73
2020/12/18 09:38:40;;;;;;;8.00;4.12;;;4.80;99.90;;;;;;483294;244;27433;-74
2020/12/18 09:40:41;;;;;;;3.37;3.08;;;4.80;99.90;;;;;;483260;246;27437;-73
2020/12/18 09:42:42;;;;;;;6.55;3.85;;;4.90;99.90;;;;;;483512;246;27418;-75
2020/12/18 09:44:43;;;;;;;4.40;3.30;;;5.00;99.90;;;;;;483518;246;27370;-74
2020/12/18 09:46:45;;;;;;;7.97;3.87;;;5.10;99.90;;;;;;483504;246;27410;-74
2020/12/18 09:48:46;;;;;;;8.32;3.95;;;5.30;99.90;;;;;;483465;246;27389;-74
2020/12/18 09:50:47;;;;;;;5.22;4.28;;;5.40;99.90;;;;;;483510;246;27620;-76
2020/12/18 09:52:48;;;;;;;7.18;3.60;;;5.50;99.90;;;;;;483516;246;27498;-74
2020/12/18 09:54:50;;;;;;;5.30;3.70;;;5.60;99.90;;;;;;483547;246;27401;-76
2020/12/18 09:56:51;;;;;;;6.00;4.30;;;5.70;99.90;;;;;;483526;246;27999;-74
2020/12/18 09:58:52;;;;;;;4.22;3.75;;;5.80;99.90;;;;;;483511;246;27872;-75
2020/12/18 10:00:53;;;;;;;8.13;4.12;;;5.80;99.90;;;;;;483453;246;27422;-74
2020/12/18 10:02:55;;;;;;;8.90;4.12;;;5.90;99.90;;;;;;483462;246;27490;-77
2020/12/18 10:04:56;;;;;;;5.50;4.35;;;6.00;99.90;;;;;;483511;246;27399;-74
2020/12/18 10:06:57;;;;;;;5.05;3.67;;;6.10;99.90;;;;;;483483;246;27453;-74
2020/12/18 10:08:59;;;;;;;9.88;5.05;;;6.10;99.90;;;;;;483526;246;27410;-76
2020/12/18 10:11:00;;;;;;;9.18;4.43;;;6.20;99.90;;;;;;483422;245;27426;-74
2020/12/18 10:13:01;;;;;;;7.25;4.40;;;6.20;99.90;;;;;;483474;246;27428;-74
2020/12/18 10:15:02;;;;;;;9.35;4.62;;;6.40;99.90;;;;;;483489;246;27953;-76
2020/12/18 10:17:03;;;;;;;9.27;5.45;;;6.40;99.90;;;;;;483490;246;28010;-76
2020/12/18 10:19:05;;;;;;;9.05;5.75;;;6.50;99.90;;;;;;483506;246;27505;-74
2020/12/18 10:21:06;;;;;;;9.13;5.20;;;6.60;99.90;;;;;;483480;246;27421;-74
2020/12/18 10:23:07;;;;;;;5.78;4.45;;;6.60;99.90;;;;;;483457;246;27406;-74
2020/12/18 10:25:08;;;;;;;7.43;4.35;;;6.70;99.90;;;;;;483570;246;27512;-77
2020/12/18 10:27:10;;;;;;;5.37;3.78;;;6.80;99.90;;;;;;483625;246;27410;-75
2020/12/18 10:29:11;;;;;;;15.68;4.10;;;6.80;99.90;;;;;;483687;246;27402;-74
2020/12/18 10:31:12;;;;;;;4.75;3.90;;;6.80;99.90;;;;;;483347;246;28302;-76
2020/12/18 10:33:14;;;;;;;4.70;4.07;;;6.90;99.90;;;;;;483033;246;27828;-76
2020/12/18 10:35:15;;;;;;;4.62;3.65;;;6.90;99.90;;;;;;483546;246;27405;-77
2020/12/18 10:37:16;;;;;;;5.10;4.12;;;7.10;99.90;;;;;;483547;246;27370;-74